Main page
METAR-TAF:

METAR-TAF

Airports :

Buenos Aires, Argentina

Aeroparque Jorge Newbery

latitude: 34-34S, longitude: 058-25W, elevation: 6 m

Current weather observation

The report was made 27 minutes ago, at 22:00 UTC
Wind 4 kt from the West/Southwest, varying between South and West/Northwest
Temperature 15°C
Humidity 55%
Pressure 1014 hPa
Visibility 10 km or more
no clouds below 1500 m and no cumulonimbus

METAR: SABE 192200Z 25004KT 190V300 CAVOK 15/06 Q1014

Time: 19:27 (22:27 UTC)

Forecast

The report was made 5 hours and 27 minutes ago, at 17:00 UTC
Forecast valid from 19 at 18 UTC to 20 at 18 UTC
Wind 10 kt from the West
Visibility 10 km or more
no clouds below 1500 m and no cumulonimbus
Becoming
from 19 at 22 UTC to 20 at 01 UTC
Wind 10 kt from the Southwest

TAF: SABE 191700Z 1918/2018 27010KT CAVOK TX17/2018Z TN07/2010Z BECMG 1922/2001 22010KT

Weather observations and forecasts of more than 4000 airports (METAR and TAF reports).

The available stations are represented by yellow and red dots on the map.

Hover mouse over dot to see the name of the station.

Then click to see weather observations and forecasts.

To change the map : click on the green buttons with a black cross to zoom in, on the green button with a dash to zoom out, or on the green arrows for adjacent maps.


METAR-TAF: